createdAt,value
2023-04-22T00:02:10.336Z,8.57
2023-04-22T00:05:15.917Z,8.60
2023-04-22T00:08:21.056Z,8.86
2023-04-22T00:11:23.904Z,8.93
2023-04-22T00:14:26.573Z,8.98
2023-04-22T00:17:29.448Z,9.07
2023-04-22T00:20:33.174Z,9.12
2023-04-22T00:23:36.194Z,9.32
2023-04-22T00:26:38.844Z,9.36
2023-04-22T00:29:41.721Z,9.51
2023-04-22T00:32:44.450Z,9.50
2023-04-22T00:35:47.324Z,9.50
2023-04-22T00:38:53.432Z,9.33
2023-04-22T00:41:56.582Z,9.38
2023-04-22T00:44:59.452Z,9.54
2023-04-22T00:48:02.912Z,9.44
2023-04-22T00:51:06.202Z,9.52
2023-04-22T00:54:09.113Z,9.57
2023-04-22T00:57:12.358Z,9.69
2023-04-22T01:00:15.471Z,9.68
2023-04-22T01:03:20.871Z,9.76
2023-04-22T01:06:24.671Z,9.64
2023-04-22T01:09:27.607Z,9.61
2023-04-22T01:12:30.522Z,9.57
2023-04-22T01:15:33.199Z,9.55
2023-04-22T01:18:36.927Z,9.58
2023-04-22T01:21:41.010Z,9.47
2023-04-22T01:24:44.154Z,9.49
2023-04-22T01:27:47.011Z,9.31
2023-04-22T01:30:50.699Z,9.22
2023-04-22T01:33:53.355Z,9.21
2023-04-22T01:36:56.304Z,8.91
2023-04-22T01:39:59.382Z,8.98
2023-04-22T01:43:03.027Z,9.13
2023-04-22T01:46:06.929Z,8.66
2023-04-22T01:49:09.900Z,8.87
2023-04-22T01:52:12.770Z,9.02
2023-04-22T01:55:15.889Z,9.11
2023-04-22T01:58:18.982Z,8.97
2023-04-22T02:01:22.224Z,8.75
2023-04-22T02:04:25.563Z,8.53
2023-04-22T02:07:28.156Z,8.23
2023-04-22T02:10:31.460Z,8.25
2023-04-22T02:13:37.847Z,8.38
2023-04-22T02:16:44.379Z,8.30
2023-04-22T02:19:47.489Z,8.34
2023-04-22T02:22:50.932Z,8.39
2023-04-22T02:25:56.108Z,8.36
2023-04-22T02:28:58.772Z,8.31
2023-04-22T02:32:02.733Z,8.32
2023-04-22T02:35:06.050Z,8.07
2023-04-22T02:38:09.033Z,8.06
2023-04-22T02:41:11.970Z,7.96
2023-04-22T02:44:14.962Z,7.78
2023-04-22T02:47:17.718Z,7.61
2023-04-22T02:50:21.036Z,7.78
2023-04-22T02:53:23.653Z,7.73
2023-04-22T02:56:27.512Z,7.56
2023-04-22T02:59:32.149Z,7.51
2023-04-22T03:02:35.485Z,7.56
2023-04-22T03:05:40.719Z,7.64
2023-04-22T03:08:44.261Z,7.59
2023-04-22T03:11:46.856Z,7.46
2023-04-22T03:14:50.468Z,7.41
2023-04-22T03:17:53.380Z,7.21
2023-04-22T03:20:56.660Z,7.26
2023-04-22T03:24:00.475Z,7.28
2023-04-22T03:27:05.555Z,7.32
2023-04-22T03:30:08.601Z,7.28
2023-04-22T03:33:12.049Z,7.21
2023-04-22T03:36:15.194Z,6.93
2023-04-22T03:39:18.640Z,6.77
2023-04-22T03:42:21.686Z,6.79
2023-04-22T03:45:24.657Z,6.96
2023-04-22T03:48:30.156Z,7.09
2023-04-22T03:51:33.230Z,7.03
2023-04-22T03:54:36.697Z,7.02
2023-04-22T03:57:41.122Z,7.01
2023-04-22T04:00:45.863Z,7.02
2023-04-22T04:03:50.141Z,6.94
2023-04-22T04:06:53.632Z,6.89
2023-04-22T04:09:56.769Z,6.74
2023-04-22T04:12:59.629Z,6.79
2023-04-22T04:16:02.636Z,6.76
2023-04-22T04:19:07.877Z,6.73
2023-04-22T04:22:11.439Z,6.76
2023-04-22T04:25:15.146Z,6.87
2023-04-22T04:28:19.910Z,6.99
2023-04-22T04:31:24.971Z,7.16
2023-04-22T04:34:28.530Z,7.35
2023-04-22T04:37:31.818Z,7.43
2023-04-22T04:40:36.213Z,7.59
2023-04-22T04:43:40.941Z,7.74
2023-04-22T04:46:46.821Z,7.90
2023-04-22T04:49:50.263Z,8.18
2023-04-22T04:52:53.304Z,8.65
2023-04-22T04:55:57.237Z,9.13
2023-04-22T04:59:01.011Z,9.33
2023-04-22T05:02:04.034Z,9.42
2023-04-22T05:05:08.138Z,9.62
2023-04-22T05:08:12.047Z,10.00
2023-04-22T05:11:15.819Z,10.36
2023-04-22T05:14:19.247Z,10.71
2023-04-22T05:17:22.546Z,10.94
2023-04-22T05:20:25.852Z,11.29
2023-04-22T05:23:30.221Z,11.64
2023-04-22T05:26:34.061Z,11.60
2023-04-22T05:29:38.571Z,11.67
2023-04-22T05:32:42.544Z,11.68
2023-04-22T05:35:46.391Z,12.11
2023-04-22T05:38:49.002Z,12.68
2023-04-22T05:41:51.911Z,12.99
2023-04-22T05:44:54.726Z,13.50
2023-04-22T05:48:05.062Z,13.70
2023-04-22T05:51:12.478Z,14.23
2023-04-22T05:54:15.897Z,13.64
2023-04-22T05:57:19.033Z,13.87
2023-04-22T06:00:22.208Z,13.91
2023-04-22T06:03:26.602Z,14.13
2023-04-22T06:06:31.876Z,14.53
2023-04-22T06:09:34.835Z,14.57
2023-04-22T06:12:37.897Z,14.38
2023-04-22T06:15:41.770Z,14.53
2023-04-22T06:18:44.445Z,14.43
2023-04-22T06:21:47.497Z,14.67
2023-04-22T06:24:51.837Z,15.07
2023-04-22T06:27:54.783Z,15.20
2023-04-22T06:30:57.680Z,15.33
2023-04-22T06:34:01.025Z,15.72
2023-04-22T06:37:04.522Z,15.94
2023-04-22T06:40:08.114Z,16.20
2023-04-22T06:43:11.733Z,16.78
2023-04-22T06:46:15.367Z,16.77
2023-04-22T06:49:18.412Z,16.92
2023-04-22T06:52:24.093Z,17.16
2023-04-22T06:55:27.677Z,17.40
2023-04-22T06:58:31.198Z,17.85
2023-04-22T07:01:34.257Z,18.33
2023-04-22T07:04:37.422Z,18.74
2023-04-22T07:07:40.769Z,18.79
2023-04-22T07:10:44.845Z,19.01
2023-04-22T07:13:52.673Z,19.17
2023-04-22T07:16:55.684Z,19.15
2023-04-22T07:19:58.455Z,19.34
2023-04-22T07:23:01.633Z,19.43
2023-04-22T07:26:04.261Z,19.79
2023-04-22T07:29:07.364Z,20.03
2023-04-22T07:32:10.054Z,20.46
2023-04-22T07:35:13.091Z,20.21
2023-04-22T07:38:15.808Z,20.83
2023-04-22T07:41:18.656Z,21.26
2023-04-22T07:44:21.877Z,21.34
2023-04-22T07:47:25.415Z,21.51
2023-04-22T07:50:28.052Z,21.46
2023-04-22T07:53:31.070Z,21.68
2023-04-22T07:56:34.598Z,21.63
2023-04-22T07:59:37.519Z,21.41
2023-04-22T08:02:40.392Z,21.79
2023-04-22T08:05:43.236Z,22.49
2023-04-22T08:08:46.583Z,22.84
2023-04-22T08:11:49.477Z,23.02
2023-04-22T08:14:52.091Z,23.03
2023-04-22T08:17:55.207Z,23.02
2023-04-22T08:20:57.855Z,23.64
2023-04-22T08:24:00.863Z,24.15
2023-04-22T08:27:03.500Z,24.27
2023-04-22T08:30:07.697Z,25.03
2023-04-22T08:33:11.340Z,24.49
2023-04-22T08:36:14.732Z,24.60
2023-04-22T08:39:18.382Z,24.64
2023-04-22T08:42:23.043Z,24.46
2023-04-22T08:45:25.669Z,24.40
2023-04-22T08:48:28.534Z,24.16
2023-04-22T08:51:35.603Z,24.61
2023-04-22T08:54:38.519Z,24.35
2023-04-22T08:57:41.847Z,24.58
2023-04-22T09:00:45.494Z,24.53
2023-04-22T09:03:50.215Z,24.98
2023-04-22T09:06:53.678Z,25.06
2023-04-22T09:09:57.424Z,24.93
2023-04-22T09:13:01.303Z,25.21
2023-04-22T09:16:04.342Z,25.06
2023-04-22T09:19:11.693Z,25.36
2023-04-22T09:22:16.302Z,25.47
2023-04-22T09:25:21.744Z,25.41
2023-04-22T09:28:24.376Z,25.77
2023-04-22T09:31:28.752Z,25.65
2023-04-22T09:34:31.574Z,26.06
2023-04-22T09:37:46.522Z,26.45
2023-04-22T09:40:52.014Z,26.40
2023-04-22T09:43:59.527Z,26.66
2023-04-22T09:47:02.291Z,25.79
2023-04-22T09:50:05.698Z,26.11
2023-04-22T09:53:10.373Z,26.06
2023-04-22T09:56:13.258Z,25.92
2023-04-22T09:59:26.790Z,26.42
2023-04-22T10:02:30.371Z,26.94
2023-04-22T10:05:37.880Z,25.87
2023-04-22T10:08:40.673Z,23.83
2023-04-22T10:11:43.642Z,23.61
2023-04-22T10:14:46.204Z,22.75
2023-04-22T10:17:52.407Z,22.71
2023-04-22T10:20:57.194Z,22.44
2023-04-22T10:24:01.266Z,22.65
2023-04-22T10:27:06.882Z,23.11
2023-04-22T10:30:10.942Z,22.90
2023-04-22T10:33:27.867Z,23.78
2023-04-22T10:36:33.348Z,24.34
2023-04-22T10:39:36.173Z,24.61
2023-04-22T10:42:43.306Z,23.49
2023-04-22T10:45:45.887Z,22.34
2023-04-22T10:48:52.428Z,22.21
2023-04-22T10:52:00.047Z,21.89
2023-04-22T10:55:03.356Z,21.60
2023-04-22T10:58:19.617Z,21.49
2023-04-22T11:01:22.688Z,20.88
2023-04-22T11:04:25.538Z,20.82
2023-04-22T11:07:32.122Z,20.65
2023-04-22T11:10:44.056Z,20.98
2023-04-22T11:13:51.046Z,21.08
2023-04-22T11:16:54.506Z,20.79
2023-04-22T11:20:01.943Z,20.94
2023-04-22T11:23:04.926Z,20.92
2023-04-22T11:26:08.025Z,20.89
2023-04-22T11:29:10.719Z,20.96
2023-04-22T11:32:14.446Z,21.20
2023-04-22T11:35:20.999Z,21.34
2023-04-22T11:38:23.988Z,21.56
2023-04-22T11:41:28.191Z,21.21
2023-04-22T11:44:31.353Z,21.35
2023-04-22T11:47:35.295Z,21.33
2023-04-22T11:50:40.428Z,21.35
2023-04-22T11:53:51.377Z,21.23
2023-04-22T11:56:54.829Z,21.17
2023-04-22T11:59:59.146Z,21.23
2023-04-22T12:03:15.721Z,21.06
2023-04-22T12:06:19.250Z,21.16
2023-04-22T12:09:25.934Z,21.46
2023-04-22T12:12:29.095Z,21.58
2023-04-22T12:15:42.743Z,21.80
2023-04-22T12:18:52.719Z,21.89
2023-04-22T12:21:57.184Z,22.00
2023-04-22T12:25:01.320Z,22.31
2023-04-22T12:28:04.063Z,23.27
2023-04-22T12:31:07.554Z,24.37
2023-04-22T12:34:10.309Z,25.12
2023-04-22T12:37:13.233Z,24.20
2023-04-22T12:40:16.059Z,23.50
2023-04-22T12:43:19.027Z,23.42
2023-04-22T12:46:21.798Z,24.87
2023-04-22T12:49:25.609Z,25.23
2023-04-22T12:52:28.234Z,25.57
2023-04-22T12:55:31.163Z,25.31
2023-04-22T12:58:33.957Z,26.00
2023-04-22T13:01:36.936Z,25.80
2023-04-22T13:04:39.556Z,25.91
2023-04-22T13:07:42.509Z,25.76
2023-04-22T13:10:45.018Z,24.84
2023-04-22T13:13:47.986Z,25.34
2023-04-22T13:16:50.838Z,25.28
2023-04-22T13:19:53.993Z,25.85
2023-04-22T13:22:56.724Z,25.80
2023-04-22T13:25:59.721Z,26.24
2023-04-22T13:29:02.872Z,26.72
2023-04-22T13:32:06.354Z,26.70
2023-04-22T13:35:09.665Z,26.96
2023-04-22T13:38:12.595Z,25.58
2023-04-22T13:41:15.278Z,25.26
2023-04-22T13:44:18.163Z,24.17
2023-04-22T13:47:20.959Z,23.96
2023-04-22T13:50:24.391Z,23.39
2023-04-22T13:53:26.882Z,23.99
2023-04-22T13:56:29.850Z,24.17
2023-04-22T13:59:35.121Z,24.05
2023-04-22T14:02:38.137Z,24.38
2023-04-22T14:05:41.012Z,24.57
2023-04-22T14:08:43.821Z,24.31
2023-04-22T14:11:46.547Z,24.40
2023-04-22T14:14:49.675Z,24.28
2023-04-22T14:17:53.918Z,23.97
2023-04-22T14:20:57.194Z,24.37
2023-04-22T14:24:00.041Z,23.96
2023-04-22T14:27:02.754Z,23.60
2023-04-22T14:30:06.759Z,24.15
2023-04-22T14:33:10.715Z,23.81
2023-04-22T14:36:13.557Z,24.13
2023-04-22T14:39:16.422Z,24.17
2023-04-22T14:42:19.760Z,24.21
2023-04-22T14:45:24.441Z,23.94
2023-04-22T14:48:30.933Z,23.08
2023-04-22T14:51:35.035Z,22.71
2023-04-22T14:54:37.981Z,22.58
2023-04-22T14:57:40.500Z,22.39
2023-04-22T15:00:43.848Z,22.04
2023-04-22T15:03:46.888Z,21.92
2023-04-22T15:06:50.025Z,21.66
2023-04-22T15:09:53.499Z,21.66
2023-04-22T15:12:56.941Z,21.64
2023-04-22T15:15:59.697Z,21.58
2023-04-22T15:19:02.714Z,21.38
2023-04-22T15:22:05.368Z,21.60
2023-04-22T15:25:10.658Z,21.53
2023-04-22T15:28:14.016Z,21.39
2023-04-22T15:31:21.566Z,21.29
2023-04-22T15:34:24.555Z,21.37
2023-04-22T15:37:27.469Z,21.51
2023-04-22T15:40:30.153Z,21.47
2023-04-22T15:43:33.226Z,21.52
2023-04-22T15:46:35.975Z,21.33
2023-04-22T15:49:39.575Z,21.31
2023-04-22T15:52:42.897Z,21.23
2023-04-22T15:55:46.914Z,21.22
2023-04-22T15:58:52.296Z,21.16
2023-04-22T16:01:55.571Z,21.05
2023-04-22T16:04:59.306Z,21.02
2023-04-22T16:08:02.071Z,20.95
2023-04-22T16:11:06.441Z,20.74
2023-04-22T16:14:11.008Z,20.74
2023-04-22T16:17:15.513Z,20.65
2023-04-22T16:20:18.321Z,20.64
2023-04-22T16:23:21.256Z,20.54
2023-04-22T16:26:23.741Z,20.48
2023-04-22T16:29:27.002Z,20.41
2023-04-22T16:32:29.632Z,20.32
2023-04-22T16:35:32.998Z,20.28
2023-04-22T16:38:35.822Z,20.17
2023-04-22T16:41:38.788Z,20.07
2023-04-22T16:44:41.431Z,19.99
2023-04-22T16:47:44.290Z,19.90
2023-04-22T16:50:47.181Z,19.90
2023-04-22T16:53:50.050Z,19.86
2023-04-22T16:56:52.626Z,19.83
2023-04-22T16:59:55.438Z,19.75
2023-04-22T17:02:58.134Z,19.66
2023-04-22T17:06:01.001Z,19.59
2023-04-22T17:09:04.353Z,19.44
2023-04-22T17:12:07.318Z,19.32
2023-04-22T17:15:10.363Z,19.19
2023-04-22T17:18:14.390Z,19.08
2023-04-22T17:21:18.353Z,18.98
2023-04-22T17:24:22.370Z,18.87
2023-04-22T17:27:25.184Z,18.81
2023-04-22T17:30:28.235Z,18.64
2023-04-22T17:33:31.502Z,18.53
2023-04-22T17:36:34.428Z,18.39
2023-04-22T17:39:38.817Z,18.25
2023-04-22T17:42:46.142Z,18.07
2023-04-22T17:45:49.414Z,17.90
2023-04-22T17:48:52.370Z,17.79
2023-04-22T17:51:55.375Z,17.69
2023-04-22T17:54:59.936Z,17.53
2023-04-22T17:58:04.106Z,17.40
2023-04-22T18:01:08.040Z,17.26
2023-04-22T18:04:11.088Z,17.16
2023-04-22T18:07:13.973Z,17.11
2023-04-22T18:10:17.040Z,17.04
2023-04-22T18:13:19.562Z,16.92
2023-04-22T18:16:22.498Z,16.76
2023-04-22T18:19:25.094Z,16.63
2023-04-22T18:22:28.372Z,16.28
2023-04-22T18:25:31.206Z,16.20
2023-04-22T18:28:34.285Z,16.00
2023-04-22T18:31:37.130Z,15.95
2023-04-22T18:34:40.787Z,15.88
2023-04-22T18:37:44.841Z,15.74
2023-04-22T18:40:48.187Z,15.64
2023-04-22T18:43:52.558Z,15.50
2023-04-22T18:46:56.947Z,15.28
2023-04-22T18:50:00.521Z,15.22
2023-04-22T18:53:04.001Z,15.17
2023-04-22T18:56:07.155Z,15.10
2023-04-22T18:59:10.808Z,14.94
2023-04-22T19:02:14.320Z,14.86
2023-04-22T19:05:18.203Z,14.89
2023-04-22T19:08:21.073Z,14.82
2023-04-22T19:11:24.871Z,14.78
2023-04-22T19:14:27.836Z,14.70
2023-04-22T19:17:31.716Z,14.69
2023-04-22T19:20:34.748Z,14.56
2023-04-22T19:23:38.720Z,14.62
2023-04-22T19:26:41.973Z,14.55
2023-04-22T19:29:54.597Z,14.58
2023-04-22T19:32:57.510Z,14.56
2023-04-22T19:36:01.197Z,14.48
2023-04-22T19:39:06.272Z,14.39
2023-04-22T19:42:10.673Z,14.40
2023-04-22T19:45:14.562Z,14.32
2023-04-22T19:48:19.195Z,14.02
2023-04-22T19:51:23.217Z,13.87
2023-04-22T19:54:29.751Z,13.84
2023-04-22T19:57:33.205Z,13.71
2023-04-22T20:00:37.886Z,13.70
2023-04-22T20:03:41.336Z,13.61
2023-04-22T20:06:48.466Z,13.51
2023-04-22T20:09:54.805Z,13.42
2023-04-22T20:12:58.629Z,13.42
2023-04-22T20:16:02.159Z,13.47
2023-04-22T20:19:05.368Z,13.50
2023-04-22T20:22:09.936Z,13.43
2023-04-22T20:25:14.971Z,13.45
2023-04-22T20:28:18.602Z,13.33
2023-04-22T20:31:23.670Z,13.35
2023-04-22T20:34:27.503Z,13.28
2023-04-22T20:37:31.895Z,13.24
2023-04-22T20:40:35.945Z,13.22
2023-04-22T20:43:38.595Z,13.07
2023-04-22T20:46:41.511Z,13.06
2023-04-22T20:49:44.263Z,13.01
2023-04-22T20:52:49.263Z,12.96
2023-04-22T20:55:51.833Z,12.93
2023-04-22T20:58:54.807Z,12.89
2023-04-22T21:01:58.353Z,12.89
2023-04-22T21:05:02.204Z,12.89
2023-04-22T21:08:09.204Z,12.80
2023-04-22T21:11:12.310Z,12.72
2023-04-22T21:14:15.666Z,12.69
2023-04-22T21:17:18.641Z,12.65
2023-04-22T21:20:24.279Z,12.68
2023-04-22T21:23:27.937Z,12.67
2023-04-22T21:26:30.827Z,12.66
2023-04-22T21:29:34.536Z,12.61
2023-04-22T21:32:40.870Z,12.60
2023-04-22T21:35:44.113Z,12.59
2023-04-22T21:38:46.989Z,12.54
2023-04-22T21:41:50.208Z,12.56
2023-04-22T21:44:53.125Z,12.65
2023-04-22T21:47:59.479Z,12.63
2023-04-22T21:51:02.307Z,12.63
2023-04-22T21:54:06.275Z,12.60
2023-04-22T21:57:09.508Z,12.61
2023-04-22T22:00:17.695Z,12.53
2023-04-22T22:03:21.017Z,12.51
2023-04-22T22:06:24.036Z,12.50
2023-04-22T22:09:27.293Z,12.57
2023-04-22T22:12:29.882Z,12.49
2023-04-22T22:15:32.838Z,12.49
2023-04-22T22:18:35.943Z,12.48
2023-04-22T22:21:38.819Z,12.42
2023-04-22T22:24:41.908Z,12.40
2023-04-22T22:27:49.499Z,12.38
2023-04-22T22:30:52.438Z,12.34
2023-04-22T22:33:55.747Z,12.34
2023-04-22T22:36:58.570Z,12.26
2023-04-22T22:43:21.789Z,12.22
2023-04-22T22:46:24.754Z,12.24
2023-04-22T22:49:27.442Z,12.20
2023-04-22T22:52:30.610Z,12.25
2023-04-22T22:55:34.222Z,12.20
2023-04-22T22:58:38.035Z,12.22
2023-04-22T23:01:40.910Z,12.13
2023-04-22T23:04:43.868Z,12.09
2023-04-22T23:07:46.903Z,12.03
2023-04-22T23:10:50.585Z,12.02
2023-04-22T23:13:53.252Z,11.93
2023-04-22T23:16:56.334Z,11.92
2023-04-22T23:20:01.541Z,11.92
2023-04-22T23:23:04.949Z,11.86
2023-04-22T23:26:07.813Z,11.85
2023-04-22T23:29:11.107Z,11.90
2023-04-22T23:32:16.335Z,11.88
2023-04-22T23:35:20.582Z,11.84
2023-04-22T23:38:23.538Z,11.79
2023-04-22T23:41:26.441Z,11.73
2023-04-22T23:44:29.444Z,11.73
2023-04-22T23:47:32.715Z,11.69
2023-04-22T23:50:35.815Z,11.61
2023-04-22T23:53:38.637Z,11.59
2023-04-22T23:56:41.706Z,11.50
2023-04-22T23:59:45.291Z,11.44
